Clinton Corners, New York
Current Conditions -  °F | °C
As of 10:53 PM on Saturday 22 Nov 2014 (Local Time) from KPOU Reporting Station
Few Clouds Few Clouds  
Wind Chill: 38°   Ceiling: Unl
Heat Index: 43°   Visibility: 10mi
Dew Point: 17°   Wind: 9mph
Humidity: 35%   Direction: 220°SW
Pressure: 30.16"   Gusts: 17mph
Location:  41.83°N, 73.76°W
Report Text: KPOU 230353Z AUTO 22008G15KT 10SM FEW120 06/M08 A3016 RMK AO2 SLP210 T00611083 TSNO
Loading
Personal Weather Stations






























Interactive Weather Map New forecast layout! Learn more

10-Day Weather Forecast

Advertisements
Track Severe Weather on mobile